createdAt,value
2023-05-22T00:01:30.070Z,22.30
2023-05-22T00:03:57.135Z,22.48
2023-05-22T00:06:24.603Z,27.27
2023-05-22T00:08:51.584Z,22.88
2023-05-22T00:11:18.672Z,22.92
2023-05-22T00:13:45.643Z,27.33
2023-05-22T00:16:12.707Z,24.95
2023-05-22T00:18:42.395Z,27.00
2023-05-22T00:21:10.364Z,29.73
2023-05-22T00:23:37.325Z,34.95
2023-05-22T00:26:04.460Z,19.95
2023-05-22T00:28:31.392Z,28.70
2023-05-22T00:30:58.372Z,31.27
2023-05-22T00:33:25.409Z,28.42
2023-05-22T00:35:52.442Z,25.63
2023-05-22T00:38:30.544Z,24.83
2023-05-22T00:40:58.100Z,27.17
2023-05-22T00:43:27.160Z,23.95
2023-05-22T00:45:54.662Z,25.23
2023-05-22T00:48:22.631Z,22.45
2023-05-22T00:50:51.493Z,23.35
2023-05-22T00:53:22.852Z,23.60
2023-05-22T00:55:50.987Z,21.60
2023-05-22T00:58:18.987Z,22.45
2023-05-22T01:00:46.882Z,26.25
2023-05-22T01:03:15.018Z,23.52
2023-05-22T01:05:43.290Z,19.25
2023-05-22T01:08:10.329Z,25.15
2023-05-22T01:10:40.222Z,23.77
2023-05-22T01:13:35.933Z,27.13
2023-05-22T01:16:15.712Z,24.13
2023-05-22T01:19:04.613Z,22.60
2023-05-22T01:21:46.429Z,24.02
2023-05-22T01:24:25.557Z,25.33
2023-05-22T01:27:26.040Z,28.40
2023-05-22T01:30:08.269Z,26.17
2023-05-22T01:32:36.948Z,26.15
2023-05-22T01:35:10.964Z,25.73
2023-05-22T01:37:39.886Z,21.90
2023-05-22T01:40:07.998Z,24.60
2023-05-22T01:42:35.347Z,23.58
2023-05-22T01:45:02.531Z,25.48
2023-05-22T01:47:29.530Z,25.40
2023-05-22T01:49:57.731Z,22.58
2023-05-22T01:52:37.478Z,24.55
2023-05-22T01:55:13.905Z,24.92
2023-05-22T01:57:53.757Z,21.55
2023-05-22T02:00:23.966Z,17.52
2023-05-22T02:03:08.067Z,21.90
2023-05-22T02:05:39.987Z,19.48
2023-05-22T02:08:07.500Z,25.00
2023-05-22T02:10:35.566Z,27.60
2023-05-22T02:13:02.861Z,24.63
2023-05-22T02:15:30.838Z,22.70
2023-05-22T02:18:01.807Z,27.48
2023-05-22T02:20:29.734Z,23.13
2023-05-22T02:22:57.989Z,20.35
2023-05-22T02:25:25.130Z,22.67
2023-05-22T02:27:52.199Z,30.00
2023-05-22T02:30:20.621Z,26.05
2023-05-22T02:32:50.674Z,26.65
2023-05-22T02:35:17.656Z,26.13
2023-05-22T02:37:45.304Z,25.90
2023-05-22T02:40:15.515Z,26.17
2023-05-22T02:42:42.484Z,28.02
2023-05-22T02:45:10.712Z,24.50
2023-05-22T02:47:37.923Z,22.00
2023-05-22T02:50:05.689Z,24.65
2023-05-22T02:52:35.275Z,25.30
2023-05-22T02:55:02.452Z,26.65
2023-05-22T02:57:29.420Z,22.80
2023-05-22T02:59:57.596Z,24.83
2023-05-22T03:02:28.463Z,23.92
2023-05-22T03:04:59.043Z,23.08
2023-05-22T03:07:27.088Z,28.50
2023-05-22T03:09:54.249Z,23.13
2023-05-22T03:12:21.629Z,24.00
2023-05-22T03:14:48.580Z,19.65
2023-05-22T03:17:15.545Z,19.17
2023-05-22T03:19:42.706Z,17.92
2023-05-22T03:22:09.763Z,21.05
2023-05-22T03:24:38.384Z,23.23
2023-05-22T03:27:05.670Z,23.70
2023-05-22T03:29:38.362Z,24.20
2023-05-22T03:32:05.851Z,19.92
2023-05-22T03:34:32.910Z,15.73
2023-05-22T03:37:01.038Z,19.27
2023-05-22T03:39:28.121Z,19.98
2023-05-22T03:42:00.184Z,21.88
2023-05-22T03:44:27.876Z,19.77
2023-05-22T03:46:55.473Z,19.65
2023-05-22T03:49:22.463Z,20.42
2023-05-22T03:51:49.468Z,15.85
2023-05-22T03:54:16.530Z,20.33
2023-05-22T03:56:43.860Z,21.08
2023-05-22T03:59:10.850Z,22.23
2023-05-22T04:01:39.615Z,25.00
2023-05-22T04:04:06.707Z,20.50
2023-05-22T04:06:34.173Z,19.23
2023-05-22T04:09:01.186Z,25.02
2023-05-22T04:11:30.468Z,18.92
2023-05-22T04:13:57.583Z,20.67
2023-05-22T04:16:24.647Z,19.80
2023-05-22T04:18:51.678Z,21.77
2023-05-22T04:21:19.061Z,21.90
2023-05-22T04:23:46.047Z,22.98
2023-05-22T04:26:13.164Z,23.77
2023-05-22T04:28:40.509Z,19.50
2023-05-22T04:31:07.691Z,23.85
2023-05-22T04:33:34.878Z,17.13
2023-05-22T04:36:02.853Z,21.95
2023-05-22T04:38:29.911Z,18.35
2023-05-22T04:40:58.141Z,18.20
2023-05-22T04:43:26.728Z,19.65
2023-05-22T04:45:54.847Z,17.83
2023-05-22T04:48:25.036Z,19.60
2023-05-22T04:50:54.252Z,18.35
2023-05-22T04:53:21.415Z,17.95
2023-05-22T04:55:48.455Z,22.50
2023-05-22T04:58:15.687Z,21.00
2023-05-22T05:00:42.948Z,29.20
2023-05-22T05:03:11.702Z,20.85
2023-05-22T05:05:38.896Z,22.83
2023-05-22T05:08:06.125Z,23.02
2023-05-22T05:10:33.223Z,21.05
2023-05-22T05:13:00.316Z,23.70
2023-05-22T05:15:28.146Z,21.60
2023-05-22T05:17:56.193Z,23.42
2023-05-22T05:20:23.420Z,22.35
2023-05-22T05:22:51.077Z,28.85
2023-05-22T05:25:18.213Z,24.65
2023-05-22T05:27:45.703Z,25.35
2023-05-22T05:30:13.607Z,21.00
2023-05-22T05:33:03.621Z,17.40
2023-05-22T05:35:35.629Z,19.55
2023-05-22T05:38:10.502Z,23.73
2023-05-22T05:40:40.138Z,20.63
2023-05-22T05:43:09.479Z,20.80
2023-05-22T05:45:36.945Z,18.60
2023-05-22T05:48:04.723Z,21.75
2023-05-22T05:50:33.216Z,24.98
2023-05-22T05:53:01.276Z,20.88
2023-05-22T05:55:28.306Z,18.95
2023-05-22T05:57:57.385Z,14.20
2023-05-22T06:00:36.365Z,19.70
2023-05-22T06:03:03.937Z,17.42
2023-05-22T06:06:07.325Z,17.85
2023-05-22T06:08:54.352Z,19.45
2023-05-22T06:11:27.730Z,17.80
2023-05-22T06:13:55.771Z,14.52
2023-05-22T06:16:22.887Z,16.52
2023-05-22T06:18:52.468Z,19.67
2023-05-22T06:21:22.684Z,15.65
2023-05-22T06:23:50.854Z,15.35
2023-05-22T06:26:18.791Z,18.40
2023-05-22T06:28:46.765Z,15.15
2023-05-22T06:31:14.430Z,15.40
2023-05-22T06:33:44.867Z,16.70
2023-05-22T06:36:11.944Z,16.67
2023-05-22T06:38:39.321Z,13.55
2023-05-22T06:41:13.599Z,13.98
2023-05-22T06:43:40.701Z,19.13
2023-05-22T06:46:12.170Z,15.70
2023-05-22T06:48:50.657Z,16.13
2023-05-22T06:51:37.593Z,23.23
2023-05-22T06:54:09.488Z,18.58
2023-05-22T06:56:37.468Z,22.25
2023-05-22T06:59:07.819Z,22.25
2023-05-22T07:02:06.895Z,19.48
2023-05-22T07:05:03.787Z,17.85
2023-05-22T07:07:36.837Z,23.35
2023-05-22T07:10:04.276Z,15.75
2023-05-22T07:12:31.659Z,15.52
2023-05-22T07:15:00.190Z,16.83
2023-05-22T07:17:28.457Z,18.08
2023-05-22T07:19:56.959Z,16.75
2023-05-22T07:22:25.276Z,15.00
2023-05-22T07:24:52.310Z,14.10
2023-05-22T07:27:19.834Z,17.40
2023-05-22T07:29:49.383Z,13.30
2023-05-22T07:32:17.274Z,13.90
2023-05-22T07:34:44.991Z,16.95
2023-05-22T07:37:14.308Z,15.18
2023-05-22T07:39:43.300Z,13.82
2023-05-22T07:42:10.675Z,15.52
2023-05-22T07:44:45.286Z,15.02
2023-05-22T07:47:12.558Z,16.33
2023-05-22T07:49:40.723Z,13.35
2023-05-22T07:52:07.874Z,11.70
2023-05-22T07:54:35.090Z,13.43
2023-05-22T07:57:03.513Z,14.77
2023-05-22T07:59:35.837Z,13.38
2023-05-22T08:02:03.111Z,15.45
2023-05-22T08:04:30.322Z,19.00
2023-05-22T08:06:57.433Z,13.80
2023-05-22T08:09:24.476Z,17.00
2023-05-22T08:11:51.424Z,15.02
2023-05-22T08:14:18.468Z,16.60
2023-05-22T08:16:45.561Z,14.75
2023-05-22T08:19:12.717Z,16.77
2023-05-22T08:21:40.326Z,17.25
2023-05-22T08:24:08.373Z,14.25
2023-05-22T08:26:36.027Z,15.55
2023-05-22T08:29:03.087Z,17.35
2023-05-22T08:31:30.213Z,20.67
2023-05-22T08:34:02.786Z,15.38
2023-05-22T08:36:34.107Z,19.63
2023-05-22T08:39:01.823Z,15.68
2023-05-22T08:41:30.474Z,19.17
2023-05-22T08:43:58.021Z,19.63
2023-05-22T08:46:30.076Z,19.33
2023-05-22T08:48:58.838Z,22.63
2023-05-22T08:51:31.693Z,16.95
2023-05-22T08:53:59.699Z,19.85
2023-05-22T08:56:29.482Z,18.95
2023-05-22T08:58:58.666Z,18.52
2023-05-22T09:01:26.437Z,19.13
2023-05-22T09:03:54.246Z,18.50
2023-05-22T09:06:21.550Z,16.08
2023-05-22T09:08:50.051Z,21.92
2023-05-22T09:11:18.596Z,19.90
2023-05-22T09:13:46.652Z,20.00
2023-05-22T09:16:14.602Z,16.10
2023-05-22T09:18:42.659Z,18.20
2023-05-22T09:21:25.861Z,23.00
2023-05-22T09:24:01.763Z,17.88
2023-05-22T09:26:29.778Z,18.90
2023-05-22T09:28:59.604Z,21.98
2023-05-22T09:31:28.881Z,18.50
2023-05-22T09:33:56.438Z,18.48
2023-05-22T09:36:33.122Z,18.67
2023-05-22T09:39:01.921Z,21.70
2023-05-22T09:41:32.286Z,21.65
2023-05-22T09:44:01.149Z,18.65
2023-05-22T09:46:29.668Z,20.55
2023-05-22T09:48:57.019Z,19.85
2023-05-22T09:51:26.728Z,19.02
2023-05-22T09:54:03.577Z,22.65
2023-05-22T09:56:39.265Z,23.73
2023-05-22T09:59:09.686Z,22.80
2023-05-22T10:01:39.037Z,21.17
2023-05-22T10:04:10.930Z,19.88
2023-05-22T10:06:39.273Z,20.95
2023-05-22T10:09:09.211Z,21.10
2023-05-22T10:11:36.935Z,19.15
2023-05-22T10:14:05.222Z,20.20
2023-05-22T10:16:34.336Z,20.33
2023-05-22T10:19:01.794Z,18.35
2023-05-22T10:21:32.014Z,18.77
2023-05-22T10:24:02.861Z,21.35
2023-05-22T10:26:31.548Z,17.27
2023-05-22T10:29:07.517Z,22.45
2023-05-22T10:31:56.014Z,18.98
2023-05-22T10:34:56.203Z,18.05
2023-05-22T10:38:01.073Z,18.10
2023-05-22T10:40:33.769Z,17.05
2023-05-22T10:43:02.946Z,15.90
2023-05-22T10:45:31.895Z,17.02
2023-05-22T10:48:09.157Z,18.55
2023-05-22T10:50:37.122Z,17.42
2023-05-22T10:53:25.493Z,14.57
2023-05-22T10:55:57.619Z,16.27
2023-05-22T10:58:31.150Z,14.20
2023-05-22T11:01:18.981Z,14.90
2023-05-22T11:04:05.363Z,18.17
2023-05-22T11:06:38.939Z,17.05
2023-05-22T11:09:30.924Z,16.27
2023-05-22T11:12:21.365Z,12.07
2023-05-22T11:15:07.900Z,12.02
2023-05-22T11:17:44.843Z,13.85
2023-05-22T11:20:22.425Z,10.90
2023-05-22T11:23:00.984Z,11.82
2023-05-22T11:25:29.110Z,15.43
2023-05-22T11:27:57.394Z,13.15
2023-05-22T11:30:30.626Z,14.25
2023-05-22T11:32:59.727Z,14.57
2023-05-22T11:35:28.004Z,10.68
2023-05-22T11:37:56.380Z,11.82
2023-05-22T11:40:27.192Z,12.38
2023-05-22T11:42:54.637Z,9.32
2023-05-22T11:45:22.045Z,11.70
2023-05-22T11:47:50.167Z,12.25
2023-05-22T11:50:29.178Z,12.35
2023-05-22T11:53:05.686Z,12.88
2023-05-22T11:55:33.917Z,12.07
2023-05-22T11:58:02.730Z,15.38
2023-05-22T12:00:31.785Z,12.27
2023-05-22T12:02:59.459Z,11.00
2023-05-22T12:05:26.887Z,11.65
2023-05-22T12:07:54.224Z,11.20
2023-05-22T12:10:21.443Z,11.68
2023-05-22T12:12:48.950Z,12.02
2023-05-22T12:15:22.516Z,14.00
2023-05-22T12:17:49.885Z,12.68
2023-05-22T12:20:17.091Z,12.73
2023-05-22T12:22:47.214Z,14.00
2023-05-22T12:25:18.200Z,13.65
2023-05-22T12:27:46.446Z,11.73
2023-05-22T12:30:14.766Z,13.65
2023-05-22T12:32:47.254Z,13.20
2023-05-22T12:35:18.290Z,10.68
2023-05-22T12:37:50.512Z,12.60
2023-05-22T12:40:18.330Z,12.88
2023-05-22T12:42:45.780Z,10.50
2023-05-22T12:45:13.693Z,10.82
2023-05-22T12:47:40.846Z,10.95
2023-05-22T12:50:08.892Z,14.40
2023-05-22T12:52:36.314Z,16.33
2023-05-22T12:55:03.692Z,15.52
2023-05-22T12:57:31.018Z,11.77
2023-05-22T12:59:58.236Z,11.20
2023-05-22T13:02:25.540Z,11.02
2023-05-22T13:04:53.081Z,12.18
2023-05-22T13:07:20.156Z,12.07
2023-05-22T13:09:47.229Z,14.43
2023-05-22T13:12:14.568Z,13.70
2023-05-22T13:14:41.761Z,12.07
2023-05-22T13:17:09.309Z,14.23
2023-05-22T13:19:39.285Z,11.45
2023-05-22T13:22:07.715Z,12.70
2023-05-22T13:24:34.933Z,14.07
2023-05-22T13:27:02.038Z,11.50
2023-05-22T13:29:29.287Z,17.45
2023-05-22T13:31:56.432Z,18.20
2023-05-22T13:34:23.494Z,11.32
2023-05-22T13:36:50.641Z,14.20
2023-05-22T13:39:17.918Z,11.25
2023-05-22T13:41:45.638Z,16.80
2023-05-22T13:44:12.901Z,12.95
2023-05-22T13:46:41.132Z,11.75
2023-05-22T13:49:08.251Z,11.80
2023-05-22T13:51:35.668Z,11.80
2023-05-22T13:54:03.769Z,17.48
2023-05-22T13:56:31.147Z,16.85
2023-05-22T13:58:58.217Z,14.18
2023-05-22T14:01:25.428Z,16.13
2023-05-22T14:03:52.459Z,19.00
2023-05-22T14:06:19.486Z,15.13
2023-05-22T14:08:46.498Z,18.83
2023-05-22T14:11:13.502Z,19.88
2023-05-22T14:13:40.494Z,23.20
2023-05-22T14:16:07.421Z,13.73
2023-05-22T14:18:34.448Z,17.98
2023-05-22T14:21:03.935Z,16.55
2023-05-22T14:23:31.708Z,16.65
2023-05-22T14:25:58.753Z,18.88
2023-05-22T14:28:26.069Z,17.67
2023-05-22T14:30:53.299Z,18.52
2023-05-22T14:33:20.340Z,20.05
2023-05-22T14:35:48.648Z,11.45
2023-05-22T14:38:15.618Z,11.93
2023-05-22T14:40:42.712Z,10.77
2023-05-22T14:43:09.742Z,9.88
2023-05-22T14:45:36.686Z,9.63
2023-05-22T14:48:04.787Z,12.18
2023-05-22T14:50:31.867Z,13.50
2023-05-22T14:52:58.883Z,11.90
2023-05-22T14:55:28.056Z,11.85
2023-05-22T14:57:55.563Z,12.02
2023-05-22T15:00:22.596Z,9.80
2023-05-22T15:02:49.682Z,9.43
2023-05-22T15:05:16.938Z,12.57
2023-05-22T15:07:45.753Z,13.63
2023-05-22T15:10:14.467Z,10.40
2023-05-22T15:12:41.498Z,11.55
2023-05-22T15:15:09.259Z,10.38
2023-05-22T15:17:36.354Z,11.90
2023-05-22T15:20:05.505Z,10.45
2023-05-22T15:22:32.720Z,11.55
2023-05-22T15:25:15.424Z,9.18
2023-05-22T15:27:43.288Z,16.02
2023-05-22T15:30:12.021Z,10.60
2023-05-22T15:32:39.484Z,10.10
2023-05-22T15:35:07.769Z,9.00
2023-05-22T15:37:36.442Z,8.07
2023-05-22T15:40:05.695Z,6.03
2023-05-22T15:42:32.923Z,13.45
2023-05-22T15:45:00.819Z,11.40
2023-05-22T15:47:28.933Z,9.02
2023-05-22T15:49:56.069Z,7.00
2023-05-22T15:52:24.453Z,6.72
2023-05-22T15:54:51.616Z,5.55
2023-05-22T15:57:18.552Z,5.88
2023-05-22T15:59:47.412Z,6.22
2023-05-22T16:02:14.756Z,5.18
2023-05-22T16:04:42.088Z,7.38
2023-05-22T16:07:09.088Z,5.05
2023-05-22T16:09:36.384Z,6.28
2023-05-22T16:12:04.151Z,4.63
2023-05-22T16:14:31.873Z,6.18
2023-05-22T16:17:01.897Z,4.82
2023-05-22T16:19:29.192Z,4.80
2023-05-22T16:21:56.446Z,5.47
2023-05-22T16:24:24.072Z,5.22
2023-05-22T16:26:51.252Z,4.82
2023-05-22T16:29:21.341Z,7.97
2023-05-22T16:31:48.917Z,4.32
2023-05-22T16:34:16.009Z,4.63
2023-05-22T16:36:43.234Z,5.25
2023-05-22T16:39:10.548Z,4.88
2023-05-22T16:41:37.904Z,4.32
2023-05-22T16:44:05.054Z,3.30
2023-05-22T16:46:32.180Z,5.97
2023-05-22T16:48:59.151Z,5.18
2023-05-22T16:51:26.130Z,4.88
2023-05-22T16:53:53.057Z,4.65
2023-05-22T16:56:20.866Z,7.60
2023-05-22T16:58:47.992Z,4.18
2023-05-22T17:01:15.292Z,7.20
2023-05-22T17:03:42.381Z,4.65
2023-05-22T17:06:09.533Z,4.32
2023-05-22T17:08:36.490Z,6.40
2023-05-22T17:11:03.562Z,5.03
2023-05-22T17:13:30.587Z,3.47
2023-05-22T17:15:57.724Z,4.03
2023-05-22T17:18:24.727Z,3.90
2023-05-22T17:20:56.381Z,6.05
2023-05-22T17:23:23.720Z,7.15
2023-05-22T17:25:51.324Z,3.88
2023-05-22T17:28:19.522Z,5.78
2023-05-22T17:30:47.190Z,4.13
2023-05-22T17:33:14.247Z,3.72
2023-05-22T17:35:41.969Z,3.70
2023-05-22T17:38:09.185Z,4.95
2023-05-22T17:40:44.724Z,3.92
2023-05-22T17:43:13.742Z,5.43
2023-05-22T17:45:41.574Z,4.70
2023-05-22T17:48:08.937Z,4.93
2023-05-22T17:50:36.072Z,3.47
2023-05-22T17:53:03.262Z,4.35
2023-05-22T17:55:30.344Z,5.10
2023-05-22T17:57:58.570Z,4.00
2023-05-22T18:00:25.753Z,6.40
2023-05-22T18:02:52.795Z,4.82
2023-05-22T18:05:19.859Z,5.40
2023-05-22T18:07:46.884Z,3.95
2023-05-22T18:10:13.848Z,14.93
2023-05-22T18:12:40.931Z,4.75
2023-05-22T18:15:10.642Z,5.20
2023-05-22T18:17:38.343Z,8.25
2023-05-22T18:20:09.265Z,5.72
2023-05-22T18:22:38.825Z,7.05
2023-05-22T18:25:09.658Z,6.38
2023-05-22T18:27:36.735Z,5.85
2023-05-22T18:30:05.305Z,7.68
2023-05-22T18:32:32.491Z,6.60
2023-05-22T18:35:00.245Z,6.68
2023-05-22T18:37:27.270Z,8.10
2023-05-22T18:39:54.319Z,5.97
2023-05-22T18:42:21.510Z,6.32
2023-05-22T18:44:49.429Z,7.55
2023-05-22T18:47:16.867Z,6.18
2023-05-22T18:49:44.040Z,5.80
2023-05-22T18:52:11.171Z,6.32
2023-05-22T18:54:38.125Z,6.18
2023-05-22T18:57:05.180Z,5.85
2023-05-22T18:59:32.243Z,7.65
2023-05-22T19:01:59.230Z,7.60
2023-05-22T19:04:26.331Z,7.57
2023-05-22T19:06:53.831Z,7.15
2023-05-22T19:09:20.868Z,8.18
2023-05-22T19:11:47.977Z,5.60
2023-05-22T19:14:14.975Z,7.55
2023-05-22T19:16:43.902Z,7.43
2023-05-22T19:19:11.794Z,7.65
2023-05-22T19:21:39.202Z,7.50
2023-05-22T19:24:07.059Z,4.70
2023-05-22T19:26:34.113Z,5.15
2023-05-22T19:29:01.070Z,6.53
2023-05-22T19:31:29.231Z,5.63
2023-05-22T19:33:56.297Z,7.13
2023-05-22T19:36:23.310Z,5.60
2023-05-22T19:38:51.810Z,6.55
2023-05-22T19:41:20.200Z,9.40
2023-05-22T19:43:47.176Z,7.05
2023-05-22T19:46:14.519Z,5.03
2023-05-22T19:48:41.774Z,7.10
2023-05-22T19:51:08.864Z,4.97
2023-05-22T19:53:36.656Z,9.20
2023-05-22T19:56:04.011Z,6.75
2023-05-22T19:58:31.104Z,5.13
2023-05-22T20:00:58.127Z,5.97
2023-05-22T20:03:26.406Z,5.78
2023-05-22T20:05:53.714Z,6.53
2023-05-22T20:08:22.308Z,4.22
2023-05-22T20:10:49.494Z,4.95
2023-05-22T20:13:16.601Z,7.07
2023-05-22T20:15:43.604Z,5.47
2023-05-22T20:18:11.475Z,5.68
2023-05-22T20:20:38.644Z,5.68
2023-05-22T20:23:05.725Z,5.53
2023-05-22T20:25:32.829Z,9.25
2023-05-22T20:27:59.860Z,4.88
2023-05-22T20:30:26.854Z,9.95
2023-05-22T20:32:53.854Z,11.88
2023-05-22T20:35:22.110Z,7.82
2023-05-22T20:37:49.222Z,7.85
2023-05-22T20:40:17.487Z,8.60
2023-05-22T20:42:46.138Z,8.18
2023-05-22T20:45:16.064Z,8.48
2023-05-22T20:47:43.596Z,7.13
2023-05-22T20:50:11.354Z,6.13
2023-05-22T20:52:38.368Z,6.03
2023-05-22T20:55:06.993Z,9.57
2023-05-22T20:57:34.655Z,12.38
2023-05-22T21:00:01.945Z,9.27
2023-05-22T21:02:28.942Z,11.73
2023-05-22T21:04:56.079Z,10.30
2023-05-22T21:07:23.073Z,8.73
2023-05-22T21:09:50.100Z,7.63
2023-05-22T21:12:17.081Z,6.63
2023-05-22T21:14:44.154Z,7.30
2023-05-22T21:17:11.222Z,6.97
2023-05-22T21:19:38.251Z,8.05
2023-05-22T21:22:05.582Z,4.72
2023-05-22T21:24:32.977Z,7.80
2023-05-22T21:27:00.531Z,6.40
2023-05-22T21:29:27.667Z,5.22
2023-05-22T21:31:54.733Z,3.80
2023-05-22T21:34:21.748Z,4.30
2023-05-22T21:36:49.994Z,3.85
2023-05-22T21:39:17.168Z,4.47
2023-05-22T21:41:44.219Z,5.13
2023-05-22T21:44:11.436Z,4.88
2023-05-22T21:46:38.495Z,4.95
2023-05-22T21:49:06.262Z,5.53
2023-05-22T21:51:33.402Z,7.03
2023-05-22T21:54:00.406Z,5.63
2023-05-22T21:56:27.601Z,6.53
2023-05-22T21:58:54.584Z,4.80
2023-05-22T22:01:21.670Z,5.63
2023-05-22T22:03:48.780Z,4.18
2023-05-22T22:06:16.033Z,8.15
2023-05-22T22:08:42.978Z,6.10
2023-05-22T22:11:09.978Z,5.05
2023-05-22T22:13:36.966Z,4.60
2023-05-22T22:16:04.123Z,5.88
2023-05-22T22:18:34.048Z,8.52
2023-05-22T22:21:02.330Z,4.85
2023-05-22T22:23:29.694Z,4.43
2023-05-22T22:25:56.722Z,3.42
2023-05-22T22:28:23.794Z,6.80
2023-05-22T22:30:50.859Z,4.60
2023-05-22T22:33:17.919Z,4.72
2023-05-22T22:35:45.897Z,6.05
2023-05-22T22:38:12.880Z,5.03
2023-05-22T22:40:40.350Z,4.47
2023-05-22T22:43:07.440Z,5.05
2023-05-22T22:45:34.465Z,4.10
2023-05-22T22:48:01.618Z,4.35
2023-05-22T22:50:28.595Z,5.85
2023-05-22T22:52:55.663Z,6.50
2023-05-22T22:55:22.783Z,5.90
2023-05-22T22:57:50.103Z,4.63
2023-05-22T23:00:19.224Z,6.25
2023-05-22T23:02:46.669Z,4.80
2023-05-22T23:05:14.928Z,4.97
2023-05-22T23:07:42.029Z,5.13
2023-05-22T23:10:09.529Z,6.20
2023-05-22T23:12:36.548Z,6.63
2023-05-22T23:15:05.044Z,8.50
2023-05-22T23:17:32.179Z,6.38
2023-05-22T23:19:59.227Z,8.43
2023-05-22T23:22:26.188Z,5.97
2023-05-22T23:24:53.164Z,7.57
2023-05-22T23:27:20.171Z,7.03
2023-05-22T23:29:47.158Z,7.20
2023-05-22T23:32:14.984Z,8.27
2023-05-22T23:34:42.412Z,8.07
2023-05-22T23:37:10.149Z,7.45
2023-05-22T23:39:37.104Z,9.18
2023-05-22T23:42:04.362Z,11.73
2023-05-22T23:44:31.979Z,8.30
2023-05-22T23:46:59.181Z,6.72
2023-05-22T23:49:26.440Z,10.23
2023-05-22T23:51:53.934Z,5.85
2023-05-22T23:54:20.979Z,8.90
2023-05-22T23:56:48.172Z,5.78
2023-05-22T23:59:15.817Z,7.70
